Terminal Aerodrome Forecast
Issued by NWS

Home | Current Version | Previous Version | Text Only | Print | Product List | Glossary On
Versions: 1 2 3 4 5 6 7 8 9 10 11 12
000
FTUS46 KPDT 291100
TAFALW
TAF
KALW 291124Z 2912/3012 12005KT P6SM FEW250
     FM291500 20006KT P6SM SCT250
     FM292000 25008KT P6SM FEW100 SCT250
     FM300500 17006KT P6SM BKN200=

USA.gov is the U.S. government's official web portal to all federal, state and local government web resources and services.